sensor_id;sensor_type;location;lat;lon;timestamp;pressure;altitude;pressure_sealevel;temperature;humidity
71621;BME280;59471;42.254;23.102;2022-12-26T00:02:12;96906.03;;;0.53;85.10
71621;BME280;59471;42.254;23.102;2022-12-26T00:04:37;96908.72;;;0.66;84.01
71621;BME280;59471;42.254;23.102;2022-12-26T00:07:03;96911.94;;;0.55;85.17
71621;BME280;59471;42.254;23.102;2022-12-26T00:09:31;96918.19;;;0.51;85.17
71621;BME280;59471;42.254;23.102;2022-12-26T00:11:58;96917.09;;;0.55;85.73
71621;BME280;59471;42.254;23.102;2022-12-26T00:14:23;96914.38;;;0.73;84.92
71621;BME280;59471;42.254;23.102;2022-12-26T00:16:49;96921.63;;;0.80;84.25
71621;BME280;59471;42.254;23.102;2022-12-26T00:19:14;96916.31;;;0.83;84.13
71621;BME280;59471;42.254;23.102;2022-12-26T00:21:40;96921.72;;;0.79;83.79
71621;BME280;59471;42.254;23.102;2022-12-26T00:24:06;96924.47;;;0.76;83.03
71621;BME280;59471;42.254;23.102;2022-12-26T00:26:33;96922.66;;;0.78;83.58
71621;BME280;59471;42.254;23.102;2022-12-26T00:29:00;96925.56;;;0.57;83.50
71621;BME280;59471;42.254;23.102;2022-12-26T00:31:29;96931.03;;;0.37;84.35
71621;BME280;59471;42.254;23.102;2022-12-26T00:33:57;96926.88;;;0.04;85.60
71621;BME280;59471;42.254;23.102;2022-12-26T00:36:28;96928.16;;;0.27;86.02
71621;BME280;59471;42.254;23.102;2022-12-26T00:38:57;96926.47;;;0.42;85.19
71621;BME280;59471;42.254;23.102;2022-12-26T00:41:24;96915.22;;;0.43;85.35
71621;BME280;59471;42.254;23.102;2022-12-26T00:43:50;96920.13;;;0.48;85.00
71621;BME280;59471;42.254;23.102;2022-12-26T00:46:16;96920.78;;;0.51;85.29
71621;BME280;59471;42.254;23.102;2022-12-26T00:48:42;96926.00;;;0.50;85.62
71621;BME280;59471;42.254;23.102;2022-12-26T00:51:08;96921.78;;;0.49;85.06
71621;BME280;59471;42.254;23.102;2022-12-26T00:53:34;96932.09;;;0.49;85.12
71621;BME280;59471;42.254;23.102;2022-12-26T00:56:00;96936.41;;;0.48;84.58
71621;BME280;59471;42.254;23.102;2022-12-26T00:58:25;96935.88;;;0.57;84.85
71621;BME280;59471;42.254;23.102;2022-12-26T01:00:52;96937.25;;;0.63;84.39
71621;BME280;59471;42.254;23.102;2022-12-26T01:03:18;96943.97;;;0.65;83.82
71621;BME280;59471;42.254;23.102;2022-12-26T01:05:47;96947.09;;;0.56;84.07
71621;BME280;59471;42.254;23.102;2022-12-26T01:08:14;96955.22;;;0.64;83.32
71621;BME280;59471;42.254;23.102;2022-12-26T01:10:45;96950.53;;;0.41;84.14
71621;BME280;59471;42.254;23.102;2022-12-26T01:13:11;96947.69;;;0.15;85.54
71621;BME280;59471;42.254;23.102;2022-12-26T01:15:37;96943.53;;;0.29;84.67
71621;BME280;59471;42.254;23.102;2022-12-26T01:18:03;96939.63;;;0.21;84.56
71621;BME280;59471;42.254;23.102;2022-12-26T01:20:29;96939.13;;;-0.15;85.58
71621;BME280;59471;42.254;23.102;2022-12-26T01:22:55;96935.50;;;0.03;85.66
71621;BME280;59471;42.254;23.102;2022-12-26T01:25:21;96935.44;;;0.05;85.22
71621;BME280;59471;42.254;23.102;2022-12-26T01:27:47;96932.75;;;0.06;85.51
71621;BME280;59471;42.254;23.102;2022-12-26T01:30:13;96939.56;;;0.23;84.99
71621;BME280;59471;42.254;23.102;2022-12-26T01:32:39;96940.97;;;0.29;83.71
71621;BME280;59471;42.254;23.102;2022-12-26T01:35:05;96936.38;;;-0.12;84.64
71621;BME280;59471;42.254;23.102;2022-12-26T01:37:30;96929.00;;;-0.66;87.51
71621;BME280;59471;42.254;23.102;2022-12-26T01:39:56;96927.00;;;-0.29;87.41
71621;BME280;59471;42.254;23.102;2022-12-26T01:42:24;96925.56;;;-0.03;86.82
71621;BME280;59471;42.254;23.102;2022-12-26T01:44:58;96930.34;;;0.03;86.60
71621;BME280;59471;42.254;23.102;2022-12-26T01:47:46;96937.97;;;0.20;86.20
71621;BME280;59471;42.254;23.102;2022-12-26T01:53:36;96932.47;;;0.27;85.10
71621;BME280;59471;42.254;23.102;2022-12-26T01:56:07;96937.16;;;0.20;85.36
71621;BME280;59471;42.254;23.102;2022-12-26T01:58:41;96935.00;;;0.12;85.57
71621;BME280;59471;42.254;23.102;2022-12-26T02:01:10;96940.47;;;0.06;85.79
71621;BME280;59471;42.254;23.102;2022-12-26T02:03:38;96938.31;;;0.14;85.18
71621;BME280;59471;42.254;23.102;2022-12-26T02:06:24;96939.69;;;-0.42;89.66
71621;BME280;59471;42.254;23.102;2022-12-26T02:08:50;96934.88;;;-0.16;89.01
71621;BME280;59471;42.254;23.102;2022-12-26T02:11:38;96936.50;;;0.16;88.03
71621;BME280;59471;42.254;23.102;2022-12-26T02:14:07;96933.34;;;0.11;88.25
71621;BME280;59471;42.254;23.102;2022-12-26T02:16:34;96936.44;;;0.02;86.67
71621;BME280;59471;42.254;23.102;2022-12-26T02:19:01;96927.53;;;0.08;86.40
71621;BME280;59471;42.254;23.102;2022-12-26T02:22:00;96939.75;;;0.34;84.67
71621;BME280;59471;42.254;23.102;2022-12-26T02:24:51;96937.81;;;0.23;84.97
71621;BME280;59471;42.254;23.102;2022-12-26T02:36:18;96923.66;;;0.01;84.95
71621;BME280;59471;42.254;23.102;2022-12-26T02:38:46;96925.44;;;0.14;83.55
71621;BME280;59471;42.254;23.102;2022-12-26T02:41:55;96925.56;;;-0.03;84.34
71621;BME280;59471;42.254;23.102;2022-12-26T02:47:35;96917.25;;;-0.08;83.92
71621;BME280;59471;42.254;23.102;2022-12-26T02:50:23;96922.59;;;-0.11;84.70
71621;BME280;59471;42.254;23.102;2022-12-26T02:56:28;96931.72;;;-0.21;84.74
71621;BME280;59471;42.254;23.102;2022-12-26T02:59:43;96927.56;;;-0.24;84.64
71621;BME280;59471;42.254;23.102;2022-12-26T03:05:55;96932.53;;;-0.05;83.58
71621;BME280;59471;42.254;23.102;2022-12-26T03:11:55;96938.03;;;-0.43;84.24
71621;BME280;59471;42.254;23.102;2022-12-26T03:14:46;96940.34;;;-0.22;83.90
71621;BME280;59471;42.254;23.102;2022-12-26T03:17:26;96938.03;;;-0.43;83.79
71621;BME280;59471;42.254;23.102;2022-12-26T03:20:21;96941.53;;;-0.44;84.61
71621;BME280;59471;42.254;23.102;2022-12-26T03:22:54;96936.47;;;-0.30;84.05
71621;BME280;59471;42.254;23.102;2022-12-26T03:25:37;96940.63;;;-0.43;84.44
71621;BME280;59471;42.254;23.102;2022-12-26T03:28:24;96939.38;;;-0.36;84.16
71621;BME280;59471;42.254;23.102;2022-12-26T03:30:51;96931.41;;;-0.31;84.21
71621;BME280;59471;42.254;23.102;2022-12-26T03:33:23;96932.47;;;-0.19;83.20
71621;BME280;59471;42.254;23.102;2022-12-26T03:39:38;96934.81;;;-0.31;82.86
71621;BME280;59471;42.254;23.102;2022-12-26T03:49:25;96930.81;;;-0.36;83.91
71621;BME280;59471;42.254;23.102;2022-12-26T03:55:52;96935.47;;;-0.59;85.22
71621;BME280;59471;42.254;23.102;2022-12-26T03:59:07;96944.69;;;-0.39;84.56
71621;BME280;59471;42.254;23.102;2022-12-26T04:01:55;96943.94;;;-0.41;84.94
71621;BME280;59471;42.254;23.102;2022-12-26T04:04:43;96954.47;;;-0.30;85.10
71621;BME280;59471;42.254;23.102;2022-12-26T04:07:32;96942.03;;;-0.53;85.14
71621;BME280;59471;42.254;23.102;2022-12-26T04:10:38;96952.00;;;-0.47;85.72
71621;BME280;59471;42.254;23.102;2022-12-26T04:13:31;96950.81;;;-0.26;85.02
71621;BME280;59471;42.254;23.102;2022-12-26T04:16:55;96947.69;;;-0.47;85.53
71621;BME280;59471;42.254;23.102;2022-12-26T04:19:53;96950.31;;;-0.48;86.32
71621;BME280;59471;42.254;23.102;2022-12-26T04:22:36;96959.94;;;-0.36;85.32
71621;BME280;59471;42.254;23.102;2022-12-26T04:25:44;96962.34;;;-0.64;85.89
71621;BME280;59471;42.254;23.102;2022-12-26T04:28:30;96961.97;;;-0.41;84.93
71621;BME280;59471;42.254;23.102;2022-12-26T04:31:22;96962.53;;;-0.36;84.90
71621;BME280;59471;42.254;23.102;2022-12-26T04:37:50;96956.38;;;-0.49;84.60
71621;BME280;59471;42.254;23.102;2022-12-26T04:40:38;96947.34;;;-0.56;84.17
71621;BME280;59471;42.254;23.102;2022-12-26T04:43:27;96947.00;;;-0.50;84.45
71621;BME280;59471;42.254;23.102;2022-12-26T04:46:12;96942.03;;;-0.53;83.30
71621;BME280;59471;42.254;23.102;2022-12-26T04:48:46;96945.97;;;-0.63;84.11
71621;BME280;59471;42.254;23.102;2022-12-26T04:51:31;96947.66;;;-0.62;83.72
71621;BME280;59471;42.254;23.102;2022-12-26T04:53:57;96945.41;;;-0.68;83.88
71621;BME280;59471;42.254;23.102;2022-12-26T04:56:22;96950.44;;;-0.83;83.52
71621;BME280;59471;42.254;23.102;2022-12-26T04:58:48;96955.56;;;-0.83;83.79
71621;BME280;59471;42.254;23.102;2022-12-26T05:01:13;96957.84;;;-0.77;83.72
71621;BME280;59471;42.254;23.102;2022-12-26T05:03:57;96961.25;;;-0.60;83.60
71621;BME280;59471;42.254;23.102;2022-12-26T05:06:41;96957.84;;;-0.61;83.06
71621;BME280;59471;42.254;23.102;2022-12-26T05:09:25;96965.06;;;-0.67;82.84
71621;BME280;59471;42.254;23.102;2022-12-26T05:12:00;96960.66;;;-0.81;84.46
71621;BME280;59471;42.254;23.102;2022-12-26T05:14:30;96957.56;;;-0.88;84.83
71621;BME280;59471;42.254;23.102;2022-12-26T05:16:57;96966.50;;;-0.95;84.07
71621;BME280;59471;42.254;23.102;2022-12-26T05:19:42;96970.81;;;-0.96;84.80
71621;BME280;59471;42.254;23.102;2022-12-26T05:22:26;96984.16;;;-0.72;84.00
71621;BME280;59471;42.254;23.102;2022-12-26T05:25:18;96978.53;;;-0.62;83.81
71621;BME280;59471;42.254;23.102;2022-12-26T05:28:08;96979.34;;;-0.78;84.68
71621;BME280;59471;42.254;23.102;2022-12-26T05:30:53;96982.66;;;-0.76;84.61
71621;BME280;59471;42.254;23.102;2022-12-26T05:33:19;96997.91;;;-0.73;85.44
71621;BME280;59471;42.254;23.102;2022-12-26T05:36:03;97000.78;;;-0.95;85.15
71621;BME280;59471;42.254;23.102;2022-12-26T05:38:29;97001.72;;;-0.80;84.45
71621;BME280;59471;42.254;23.102;2022-12-26T05:40:55;97005.88;;;-0.77;83.28
71621;BME280;59471;42.254;23.102;2022-12-26T05:43:20;97005.06;;;-0.78;83.69
71621;BME280;59471;42.254;23.102;2022-12-26T05:45:46;97002.34;;;-0.92;83.91
71621;BME280;59471;42.254;23.102;2022-12-26T05:48:11;97014.47;;;-0.94;83.92
71621;BME280;59471;42.254;23.102;2022-12-26T05:50:37;97016.72;;;-1.05;83.80
71621;BME280;59471;42.254;23.102;2022-12-26T05:53:02;97016.53;;;-1.01;84.23
71621;BME280;59471;42.254;23.102;2022-12-26T05:55:28;97022.19;;;-0.94;83.98
71621;BME280;59471;42.254;23.102;2022-12-26T05:57:54;97001.41;;;-1.07;83.33
71621;BME280;59471;42.254;23.102;2022-12-26T06:00:20;97007.34;;;-0.89;83.55
71621;BME280;59471;42.254;23.102;2022-12-26T06:02:45;97012.69;;;-0.76;83.17
71621;BME280;59471;42.254;23.102;2022-12-26T06:05:11;97010.19;;;-0.78;83.26
71621;BME280;59471;42.254;23.102;2022-12-26T06:07:36;97013.69;;;-0.79;82.95
71621;BME280;59471;42.254;23.102;2022-12-26T06:10:03;97007.47;;;-0.92;83.22
71621;BME280;59471;42.254;23.102;2022-12-26T06:12:30;97010.34;;;-0.81;82.56
71621;BME280;59471;42.254;23.102;2022-12-26T06:14:56;97018.84;;;-0.79;82.89
71621;BME280;59471;42.254;23.102;2022-12-26T06:17:22;97015.91;;;-1.06;83.08
71621;BME280;59471;42.254;23.102;2022-12-26T06:19:47;97021.41;;;-0.96;83.39
71621;BME280;59471;42.254;23.102;2022-12-26T06:22:12;97025.28;;;-0.87;83.51
71621;BME280;59471;42.254;23.102;2022-12-26T06:24:38;97020.78;;;-0.84;82.81
71621;BME280;59471;42.254;23.102;2022-12-26T06:27:03;97037.31;;;-0.88;83.34
71621;BME280;59471;42.254;23.102;2022-12-26T06:29:29;97035.91;;;-0.78;82.63
71621;BME280;59471;42.254;23.102;2022-12-26T06:31:55;97035.34;;;-1.00;83.33
71621;BME280;59471;42.254;23.102;2022-12-26T06:34:20;97039.50;;;-1.32;83.91
71621;BME280;59471;42.254;23.102;2022-12-26T06:36:46;97033.50;;;-1.33;83.84
71621;BME280;59471;42.254;23.102;2022-12-26T06:39:11;97039.72;;;-1.02;83.89
71621;BME280;59471;42.254;23.102;2022-12-26T06:41:37;97037.59;;;-0.94;83.87
71621;BME280;59471;42.254;23.102;2022-12-26T06:44:02;97036.38;;;-0.87;83.26
71621;BME280;59471;42.254;23.102;2022-12-26T06:46:28;97039.88;;;-0.88;82.40
71621;BME280;59471;42.254;23.102;2022-12-26T06:48:54;97035.19;;;-0.97;82.79
71621;BME280;59471;42.254;23.102;2022-12-26T06:51:21;97037.88;;;-0.83;83.34
71621;BME280;59471;42.254;23.102;2022-12-26T06:53:49;97044.16;;;-0.88;83.53
71621;BME280;59471;42.254;23.102;2022-12-26T06:56:18;97036.38;;;-0.87;83.30
71621;BME280;59471;42.254;23.102;2022-12-26T06:59:00;97039.72;;;-0.85;84.18
71621;BME280;59471;42.254;23.102;2022-12-26T07:01:28;97044.41;;;-0.76;83.86
71621;BME280;59471;42.254;23.102;2022-12-26T07:03:54;97038.91;;;-0.70;83.26
71621;BME280;59471;42.254;23.102;2022-12-26T07:06:23;97045.31;;;-0.94;83.53
71621;BME280;59471;42.254;23.102;2022-12-26T07:08:51;97042.28;;;-1.02;84.96
71621;BME280;59471;42.254;23.102;2022-12-26T07:11:23;97040.69;;;-0.87;85.07
71621;BME280;59471;42.254;23.102;2022-12-26T07:13:52;97035.91;;;-0.78;84.24
71621;BME280;59471;42.254;23.102;2022-12-26T07:16:18;97032.31;;;-0.58;83.77
71621;BME280;59471;42.254;23.102;2022-12-26T07:18:43;97037.97;;;-0.51;83.98
71621;BME280;59471;42.254;23.102;2022-12-26T07:21:11;97048.09;;;-0.48;84.72
71621;BME280;59471;42.254;23.102;2022-12-26T07:23:38;97050.25;;;-0.56;85.96
71621;BME280;59471;42.254;23.102;2022-12-26T07:26:04;97058.72;;;-0.54;86.69
71621;BME280;59471;42.254;23.102;2022-12-26T07:28:30;97061.41;;;-0.40;86.25
71621;BME280;59471;42.254;23.102;2022-12-26T07:30:56;97063.56;;;-0.32;85.89
71621;BME280;59471;42.254;23.102;2022-12-26T07:33:24;97062.72;;;-0.15;86.13
71621;BME280;59471;42.254;23.102;2022-12-26T07:35:49;97067.22;;;-0.03;85.80
71621;BME280;59471;42.254;23.102;2022-12-26T07:38:15;97069.25;;;0.06;85.25
71621;BME280;59471;42.254;23.102;2022-12-26T07:40:41;97067.38;;;0.26;85.19
71621;BME280;59471;42.254;23.102;2022-12-26T07:43:07;97071.94;;;0.36;84.89
71621;BME280;59471;42.254;23.102;2022-12-26T07:45:32;97066.28;;;0.45;85.20
71621;BME280;59471;42.254;23.102;2022-12-26T07:47:58;97070.09;;;0.54;85.62
71621;BME280;59471;42.254;23.102;2022-12-26T07:50:24;97068.16;;;0.58;85.69
71621;BME280;59471;42.254;23.102;2022-12-26T07:52:51;97073.66;;;0.67;86.51
71621;BME280;59471;42.254;23.102;2022-12-26T07:55:17;97061.88;;;0.78;86.25
71621;BME280;59471;42.254;23.102;2022-12-26T07:57:42;97065.34;;;0.92;86.37
71621;BME280;59471;42.254;23.102;2022-12-26T08:00:09;97059.38;;;0.92;86.73
71621;BME280;59471;42.254;23.102;2022-12-26T08:02:35;97066.81;;;0.82;87.10
71621;BME280;59471;42.254;23.102;2022-12-26T08:05:01;97065.38;;;1.07;85.49
71621;BME280;59471;42.254;23.102;2022-12-26T08:07:26;97070.28;;;1.11;84.88
71621;BME280;59471;42.254;23.102;2022-12-26T08:09:52;97076.09;;;1.15;86.16
71621;BME280;59471;42.254;23.102;2022-12-26T08:12:17;97074.72;;;1.24;85.48
71621;BME280;59471;42.254;23.102;2022-12-26T08:14:46;97073.56;;;1.29;85.65
71621;BME280;59471;42.254;23.102;2022-12-26T08:17:12;97076.78;;;1.47;85.22
71621;BME280;59471;42.254;23.102;2022-12-26T08:19:37;97070.06;;;1.59;85.71
71621;BME280;59471;42.254;23.102;2022-12-26T08:22:03;97070.44;;;1.81;84.79
71621;BME280;59471;42.254;23.102;2022-12-26T08:24:29;97070.69;;;1.91;84.86
71621;BME280;59471;42.254;23.102;2022-12-26T08:26:54;97075.22;;;1.73;85.51
71621;BME280;59471;42.254;23.102;2022-12-26T08:29:20;97074.22;;;1.90;85.10
71621;BME280;59471;42.254;23.102;2022-12-26T08:31:45;97071.16;;;2.12;83.99
71621;BME280;59471;42.254;23.102;2022-12-26T08:34:11;97068.66;;;1.96;84.32
71621;BME280;59471;42.254;23.102;2022-12-26T08:36:37;97068.19;;;2.18;83.91
71621;BME280;59471;42.254;23.102;2022-12-26T08:39:03;97049.22;;;2.32;83.61
71621;BME280;59471;42.254;23.102;2022-12-26T08:41:29;97050.91;;;2.46;83.27
71621;BME280;59471;42.254;23.102;2022-12-26T08:43:54;97050.47;;;2.39;84.29
71621;BME280;59471;42.254;23.102;2022-12-26T08:46:21;97058.00;;;2.57;87.42
71621;BME280;59471;42.254;23.102;2022-12-26T08:48:47;97047.97;;;2.65;85.33
71621;BME280;59471;42.254;23.102;2022-12-26T08:51:16;97044.81;;;2.74;84.70
71621;BME280;59471;42.254;23.102;2022-12-26T08:53:43;97047.72;;;2.82;85.15
71621;BME280;59471;42.254;23.102;2022-12-26T08:56:15;97049.63;;;3.06;83.68
71621;BME280;59471;42.254;23.102;2022-12-26T08:58:44;97049.31;;;2.97;84.12
71621;BME280;59471;42.254;23.102;2022-12-26T09:01:16;97044.84;;;2.99;83.26
71621;BME280;59471;42.254;23.102;2022-12-26T09:03:43;97040.97;;;3.07;83.11
71621;BME280;59471;42.254;23.102;2022-12-26T09:06:10;97041.06;;;3.18;83.00
71621;BME280;59471;42.254;23.102;2022-12-26T09:08:38;97036.41;;;3.23;82.81
71621;BME280;59471;42.254;23.102;2022-12-26T09:11:06;97028.53;;;3.37;82.62
71621;BME280;59471;42.254;23.102;2022-12-26T09:13:35;97023.78;;;3.44;82.25
71621;BME280;59471;42.254;23.102;2022-12-26T09:16:13;97020.13;;;3.59;81.61
71621;BME280;59471;42.254;23.102;2022-12-26T09:18:42;97020.44;;;3.67;81.27
71621;BME280;59471;42.254;23.102;2022-12-26T09:21:10;97012.88;;;3.77;81.11
71621;BME280;59471;42.254;23.102;2022-12-26T09:23:37;97008.00;;;3.85;80.88
71621;BME280;59471;42.254;23.102;2022-12-26T09:26:09;97001.53;;;4.04;80.22
71621;BME280;59471;42.254;23.102;2022-12-26T09:28:36;97001.09;;;4.10;79.78
71621;BME280;59471;42.254;23.102;2022-12-26T09:31:05;96998.94;;;4.04;79.25
71621;BME280;59471;42.254;23.102;2022-12-26T09:33:33;96996.47;;;4.26;79.61
71621;BME280;59471;42.254;23.102;2022-12-26T09:36:04;96990.41;;;4.38;78.50
71621;BME280;59471;42.254;23.102;2022-12-26T09:38:32;96985.13;;;4.03;78.87
71621;BME280;59471;42.254;23.102;2022-12-26T09:49:55;96968.50;;;4.54;77.62
71621;BME280;59471;42.254;23.102;2022-12-26T09:52:31;96969.66;;;4.74;77.32
71621;BME280;59471;42.254;23.102;2022-12-26T09:55:02;96968.34;;;4.44;77.19
71621;BME280;59471;42.254;23.102;2022-12-26T09:57:45;96967.38;;;4.69;77.82
71621;BME280;59471;42.254;23.102;2022-12-26T10:00:36;96966.88;;;5.10;74.96
71621;BME280;59471;42.254;23.102;2022-12-26T10:03:07;96965.34;;;4.85;76.81
71621;BME280;59471;42.254;23.102;2022-12-26T10:05:39;96968.88;;;4.96;76.81
71621;BME280;59471;42.254;23.102;2022-12-26T10:11:33;96966.31;;;5.29;74.70
71621;BME280;59471;42.254;23.102;2022-12-26T10:16:54;96947.22;;;5.53;74.17
71621;BME280;59471;42.254;23.102;2022-12-26T10:25:37;96946.59;;;5.72;75.52
71621;BME280;59471;42.254;23.102;2022-12-26T10:29:28;96936.06;;;5.85;72.38
71621;BME280;59471;42.254;23.102;2022-12-26T10:31:53;96934.66;;;5.80;72.14
71621;BME280;59471;42.254;23.102;2022-12-26T10:34:27;96939.84;;;6.03;71.33
71621;BME280;59471;42.254;23.102;2022-12-26T10:37:02;96926.38;;;6.09;70.99
71621;BME280;59471;42.254;23.102;2022-12-26T10:39:40;96920.81;;;5.91;71.90
71621;BME280;59471;42.254;23.102;2022-12-26T10:45:14;96915.63;;;6.35;71.28
71621;BME280;59471;42.254;23.102;2022-12-26T10:47:59;96919.31;;;6.32;70.00
71621;BME280;59471;42.254;23.102;2022-12-26T10:50:29;96916.31;;;6.37;71.94
71621;BME280;59471;42.254;23.102;2022-12-26T10:52:57;96915.63;;;6.56;69.68
71621;BME280;59471;42.254;23.102;2022-12-26T10:55:29;96917.63;;;6.63;68.53
71621;BME280;59471;42.254;23.102;2022-12-26T10:58:01;96915.84;;;6.64;70.13
71621;BME280;59471;42.254;23.102;2022-12-26T11:00:37;96915.78;;;6.75;69.32
71621;BME280;59471;42.254;23.102;2022-12-26T11:03:05;96904.72;;;6.62;69.13
71621;BME280;59471;42.254;23.102;2022-12-26T11:05:34;96907.47;;;6.60;69.67
71621;BME280;59471;42.254;23.102;2022-12-26T11:08:27;96903.41;;;6.67;70.00
71621;BME280;59471;42.254;23.102;2022-12-26T11:11:12;96902.88;;;6.73;69.90
71621;BME280;59471;42.254;23.102;2022-12-26T11:13:58;96893.28;;;6.95;70.75
71621;BME280;59471;42.254;23.102;2022-12-26T11:16:26;96895.13;;;7.04;68.41
71621;BME280;59471;42.254;23.102;2022-12-26T11:18:55;96890.66;;;7.16;69.15
71621;BME280;59471;42.254;23.102;2022-12-26T11:21:24;96882.63;;;7.29;68.75
71621;BME280;59471;42.254;23.102;2022-12-26T11:26:43;96872.22;;;7.29;69.39
71621;BME280;59471;42.254;23.102;2022-12-26T11:29:16;96865.75;;;7.33;69.59
71621;BME280;59471;42.254;23.102;2022-12-26T11:31:58;96873.53;;;7.54;68.70
71621;BME280;59471;42.254;23.102;2022-12-26T11:34:32;96863.47;;;7.49;69.16
71621;BME280;59471;42.254;23.102;2022-12-26T11:37:00;96854.09;;;7.37;69.03
71621;BME280;59471;42.254;23.102;2022-12-26T11:39:32;96861.66;;;7.40;69.78
71621;BME280;59471;42.254;23.102;2022-12-26T11:41:59;96859.63;;;7.53;67.30
71621;BME280;59471;42.254;23.102;2022-12-26T11:44:30;96866.84;;;7.71;66.94
71621;BME280;59471;42.254;23.102;2022-12-26T11:47:09;96867.97;;;7.97;66.72
71621;BME280;59471;42.254;23.102;2022-12-26T11:50:04;96867.28;;;8.15;67.18
71621;BME280;59471;42.254;23.102;2022-12-26T11:55:36;96860.94;;;7.88;64.91
71621;BME280;59471;42.254;23.102;2022-12-26T12:00:43;96855.06;;;8.05;65.04
71621;BME280;59471;42.254;23.102;2022-12-26T12:03:41;96839.13;;;7.89;67.10
71621;BME280;59471;42.254;23.102;2022-12-26T12:06:22;96828.97;;;8.05;65.86
71621;BME280;59471;42.254;23.102;2022-12-26T12:12:16;96822.91;;;8.34;65.43
71621;BME280;59471;42.254;23.102;2022-12-26T12:18:16;96821.56;;;8.49;63.32
71621;BME280;59471;42.254;23.102;2022-12-26T12:29:47;96804.78;;;8.62;64.09
71621;BME280;59471;42.254;23.102;2022-12-26T12:35:20;96797.50;;;8.55;63.42
71621;BME280;59471;42.254;23.102;2022-12-26T12:43:11;96792.94;;;8.67;63.35
71621;BME280;59471;42.254;23.102;2022-12-26T12:57:42;96800.47;;;9.08;61.24
71621;BME280;59471;42.254;23.102;2022-12-26T13:05:49;96801.00;;;9.21;62.67
71621;BME280;59471;42.254;23.102;2022-12-26T13:08:55;96793.50;;;9.26;62.49
71621;BME280;59471;42.254;23.102;2022-12-26T13:11:37;96794.66;;;9.14;63.57
71621;BME280;59471;42.254;23.102;2022-12-26T13:14:13;96795.28;;;8.98;62.46
71621;BME280;59471;42.254;23.102;2022-12-26T13:16:46;96794.66;;;9.14;61.59
71621;BME280;59471;42.254;23.102;2022-12-26T13:19:27;96802.84;;;9.28;62.86
71621;BME280;59471;42.254;23.102;2022-12-26T13:22:05;96798.16;;;9.32;61.60
71621;BME280;59471;42.254;23.102;2022-12-26T13:25:13;96789.03;;;9.36;62.70
71621;BME280;59471;42.254;23.102;2022-12-26T13:27:39;96794.25;;;9.46;62.82
71621;BME280;59471;42.254;23.102;2022-12-26T13:30:12;96798.53;;;9.65;62.30
71621;BME280;59471;42.254;23.102;2022-12-26T13:32:40;96812.25;;;9.49;61.48
71621;BME280;59471;42.254;23.102;2022-12-26T13:35:19;96806.75;;;9.42;61.64
71621;BME280;59471;42.254;23.102;2022-12-26T13:38:09;96817.16;;;9.34;63.60
71621;BME280;59471;42.254;23.102;2022-12-26T13:40:35;96805.06;;;9.33;63.26
71621;BME280;59471;42.254;23.102;2022-12-26T13:43:24;96804.94;;;9.25;64.23
71621;BME280;59471;42.254;23.102;2022-12-26T13:57:42;96794.31;;;9.09;64.36
71621;BME280;59471;42.254;23.102;2022-12-26T14:12:26;96783.25;;;8.87;65.71
71621;BME280;59471;42.254;23.102;2022-12-26T14:23:19;96787.47;;;8.51;66.98
71621;BME280;59471;42.254;23.102;2022-12-26T14:35:00;96789.16;;;7.94;69.06
71621;BME280;59471;42.254;23.102;2022-12-26T14:37:58;96776.53;;;7.70;69.98
71621;BME280;59471;42.254;23.102;2022-12-26T14:41:02;96776.50;;;7.50;70.21
71621;BME280;59471;42.254;23.102;2022-12-26T14:43:37;96777.28;;;7.31;70.61
71621;BME280;59471;42.254;23.102;2022-12-26T14:46:53;96783.00;;;7.15;71.35
71621;BME280;59471;42.254;23.102;2022-12-26T14:49:22;96779.41;;;6.97;72.46
71621;BME280;59471;42.254;23.102;2022-12-26T14:54:48;96779.84;;;6.71;72.36
71621;BME280;59471;42.254;23.102;2022-12-26T14:57:48;96791.31;;;6.59;72.72
71621;BME280;59471;42.254;23.102;2022-12-26T15:00:24;96798.81;;;6.32;73.85
71621;BME280;59471;42.254;23.102;2022-12-26T15:05:34;96797.09;;;5.89;75.83
71621;BME280;59471;42.254;23.102;2022-12-26T15:16:50;96805.88;;;5.76;76.34
71621;BME280;59471;42.254;23.102;2022-12-26T15:24:57;96823.47;;;5.41;76.92
71621;BME280;59471;42.254;23.102;2022-12-26T15:27:50;96814.06;;;5.61;76.05
71621;BME280;59471;42.254;23.102;2022-12-26T15:33:27;96809.56;;;5.30;77.56
71621;BME280;59471;42.254;23.102;2022-12-26T15:45:31;96787.97;;;5.19;77.60
71621;BME280;59471;42.254;23.102;2022-12-26T15:53:35;96785.50;;;4.95;78.17
71621;BME280;59471;42.254;23.102;2022-12-26T16:01:57;96787.28;;;4.03;80.40
71621;BME280;59471;42.254;23.102;2022-12-26T16:05:10;96806.41;;;4.13;81.16
71621;BME280;59471;42.254;23.102;2022-12-26T16:07:54;96806.34;;;4.26;80.26
71621;BME280;59471;42.254;23.102;2022-12-26T16:10:41;96815.53;;;4.30;80.31
71621;BME280;59471;42.254;23.102;2022-12-26T16:16:04;96816.09;;;4.22;79.59
71621;BME280;59471;42.254;23.102;2022-12-26T16:18:31;96822.34;;;3.84;81.12
71621;BME280;59471;42.254;23.102;2022-12-26T16:21:02;96826.75;;;3.95;80.84
71621;BME280;59471;42.254;23.102;2022-12-26T16:23:51;96821.72;;;4.05;80.56
71621;BME280;59471;42.254;23.102;2022-12-26T16:26:24;96827.16;;;4.13;79.95
71621;BME280;59471;42.254;23.102;2022-12-26T16:28:54;96825.94;;;3.94;79.99
71621;BME280;59471;42.254;23.102;2022-12-26T16:31:24;96826.31;;;3.77;80.87
71621;BME280;59471;42.254;23.102;2022-12-26T16:33:52;96823.66;;;3.90;80.91
71621;BME280;59471;42.254;23.102;2022-12-26T16:36:21;96827.56;;;3.95;80.48
71621;BME280;59471;42.254;23.102;2022-12-26T16:38:50;96824.69;;;3.87;79.98
71621;BME280;59471;42.254;23.102;2022-12-26T16:41:25;96823.94;;;3.26;81.25
71621;BME280;59471;42.254;23.102;2022-12-26T16:43:56;96828.47;;;3.35;82.26
71621;BME280;59471;42.254;23.102;2022-12-26T16:46:37;96834.97;;;3.41;82.26
71621;BME280;59471;42.254;23.102;2022-12-26T16:49:03;96837.22;;;3.45;80.47
71621;BME280;59471;42.254;23.102;2022-12-26T16:51:46;96835.34;;;3.47;81.23
71621;BME280;59471;42.254;23.102;2022-12-26T16:56:48;96839.81;;;3.45;81.10
71621;BME280;59471;42.254;23.102;2022-12-26T16:59:18;96840.72;;;3.20;81.82
71621;BME280;59471;42.254;23.102;2022-12-26T17:01:50;96842.72;;;3.04;82.47